Time;durP1;ratioP1;P1;durP2;ratioP2;P2;SDS_P1;SDS_P2;PMS_P1;PMS_P2;Temp;Humidity;BMP_temperature;BMP_pressure;BME280_temperature;BME280_humidity;BME280_pressure;Samples;Min_cycle;Max_cycle;Signal;HPM_P1;HPM_P2
2023/07/18 00:01:58;;;;;;;19.80;12.85;;;;;;;23.04;100.00;97536.78;5049260;28;20116;-72
2023/07/18 00:04:25;;;;;;;19.58;12.80;;;;;;;22.92;100.00;97538.16;5050684;28;20053;-73
2023/07/18 00:06:51;;;;;;;16.88;12.23;;;;;;;22.81;100.00;97534.94;5064453;28;20417;-73
2023/07/18 00:09:16;;;;;;;24.45;13.25;;;;;;;22.68;100.00;97546.34;5050499;28;20132;-72
2023/07/18 00:11:42;;;;;;;18.95;13.05;;;;;;;22.65;100.00;97530.34;5050769;28;20491;-73
2023/07/18 00:14:08;;;;;;;15.90;13.32;;;;;;;22.67;100.00;97531.03;5048928;28;20059;-73
2023/07/18 00:16:33;;;;;;;21.60;12.82;;;;;;;22.69;100.00;97528.97;5050525;28;20029;-73
2023/07/18 00:18:59;;;;;;;18.70;13.43;;;;;;;22.62;100.00;97531.50;5049247;28;20040;-73
2023/07/18 00:21:26;;;;;;;19.60;13.25;;;;;;;22.60;100.00;97538.16;5064276;28;20373;-72
2023/07/18 00:23:51;;;;;;;18.73;13.95;;;;;;;22.62;100.00;97539.69;5052589;28;20423;-72
2023/07/18 00:26:17;;;;;;;20.52;14.50;;;;;;;22.61;100.00;97539.88;5051219;28;20070;-72
2023/07/18 00:28:43;;;;;;;21.77;14.90;;;;;;;22.61;100.00;97534.41;5044421;28;20031;-73
2023/07/18 00:31:08;;;;;;;17.08;12.88;;;;;;;22.56;100.00;97525.88;5069016;28;20047;-72
2023/07/18 00:33:34;;;;;;;21.75;14.02;;;;;;;22.52;100.00;97524.50;5068897;28;20024;-72
2023/07/18 00:35:59;;;;;;;21.38;13.48;;;;;;;22.55;100.00;97533.19;5052502;28;20174;-72
2023/07/18 00:38:25;;;;;;;15.98;12.85;;;;;;;22.51;100.00;97514.63;5069172;28;20055;-71
2023/07/18 00:40:50;;;;;;;22.27;13.07;;;;;;;22.47;100.00;97516.84;5071500;28;20016;-72
2023/07/18 00:43:16;;;;;;;18.95;12.77;;;;;;;22.39;100.00;97522.31;5059233;28;20557;-73
2023/07/18 00:45:44;;;;;;;22.05;13.25;;;;;;;22.36;100.00;97513.59;5054048;28;20029;-72
2023/07/18 00:48:10;;;;;;;18.10;12.50;;;;;;;22.25;100.00;97500.28;5054303;28;20029;-72
2023/07/18 00:50:36;;;;;;;17.33;13.15;;;;;;;22.19;100.00;97500.97;5036428;28;20033;-71
2023/07/18 00:53:02;;;;;;;19.23;13.00;;;;;;;22.26;100.00;97502.00;5053106;28;20074;-72
2023/07/18 00:55:28;;;;;;;19.35;13.70;;;;;;;22.17;100.00;97508.47;5053279;28;20055;-72
2023/07/18 00:57:54;;;;;;;19.67;14.02;;;;;;;22.15;100.00;97514.06;5072997;28;20024;-72
2023/07/18 01:00:22;;;;;;;23.42;13.80;;;;;;;22.10;100.00;97514.59;5063666;28;20120;-73
2023/07/18 01:02:49;;;;;;;19.90;14.38;;;;;;;22.03;100.00;97510.81;5052692;28;20029;-73
2023/07/18 01:05:17;;;;;;;17.38;13.57;;;;;;;21.98;100.00;97505.03;5052972;28;20082;-72
2023/07/18 01:07:44;;;;;;;21.25;14.70;;;;;;;21.92;100.00;97516.59;5036070;28;20033;-72
2023/07/18 01:10:28;;;;;;;23.58;14.93;;;;;;;21.90;100.00;97512.34;5054123;28;20021;-72
2023/07/18 01:12:57;;;;;;;20.67;14.52;;;;;;;21.92;100.00;97519.31;5053978;28;20041;-73
2023/07/18 01:15:24;;;;;;;23.83;14.95;;;;;;;21.89;100.00;97514.19;5052980;28;20017;-72
2023/07/18 01:17:50;;;;;;;18.30;14.57;;;;;;;21.85;100.00;97515.50;5051674;28;20048;-73
2023/07/18 01:20:21;;;;;;;21.77;14.10;;;;;;;21.85;100.00;97510.06;5052767;28;20020;-72
2023/07/18 01:22:49;;;;;;;19.30;13.57;;;;;;;21.76;100.00;97502.88;5053768;28;20111;-72
2023/07/18 01:25:16;;;;;;;20.80;13.52;;;;;;;21.74;100.00;97501.34;5052589;28;20025;-71
2023/07/18 01:27:43;;;;;;;17.80;13.50;;;;;;;21.67;100.00;97497.56;5052366;28;20535;-72
2023/07/18 01:30:09;;;;;;;21.13;14.85;;;;;;;21.63;100.00;97499.75;5052478;28;20056;-72
2023/07/18 01:32:35;;;;;;;23.80;13.55;;;;;;;21.61;100.00;97508.13;5035518;28;20029;-73
2023/07/18 01:35:06;;;;;;;20.83;14.05;;;;;;;21.59;100.00;97501.13;5035362;28;20037;-72
2023/07/18 01:37:32;;;;;;;25.13;14.18;;;;;;;21.70;100.00;97503.53;5051725;28;20031;-72
2023/07/18 01:39:59;;;;;;;21.25;14.15;;;;;;;21.69;100.00;97507.28;5051972;28;20068;-72
2023/07/18 01:42:24;;;;;;;18.88;13.68;;;;;;;21.69;100.00;97510.00;5051731;28;20040;-72
2023/07/18 01:44:50;;;;;;;18.02;14.43;;;;;;;21.62;100.00;97503.53;5051915;28;20476;-72
2023/07/18 01:47:16;;;;;;;24.30;14.05;;;;;;;21.53;100.00;97505.34;5052248;28;20060;-72
2023/07/18 01:49:41;;;;;;;20.35;14.63;;;;;;;21.53;100.00;97507.25;5049163;28;20477;-72
2023/07/18 01:52:07;;;;;;;18.40;13.70;;;;;;;21.51;100.00;97510.13;5052634;28;20033;-72
2023/07/18 01:54:33;;;;;;;19.67;14.40;;;;;;;21.49;100.00;97503.13;5034784;28;20512;-71
2023/07/18 01:56:58;;;;;;;19.80;14.52;;;;;;;21.48;100.00;97504.13;5051786;28;20060;-71
2023/07/18 01:59:24;;;;;;;19.55;14.63;;;;;;;21.44;100.00;97490.00;5052123;28;20029;-72
2023/07/18 02:01:51;;;;;;;20.88;14.45;;;;;;;21.45;100.00;97501.75;5053032;28;20546;-72
2023/07/18 02:04:23;;;;;;;20.75;13.57;;;;;;;21.45;100.00;97504.47;5053128;28;20472;-72
2023/07/18 02:06:48;;;;;;;19.20;14.63;;;;;;;21.38;100.00;97495.28;5051510;28;20493;-72
2023/07/18 02:09:14;;;;;;;26.42;14.90;;;;;;;21.45;100.00;97496.31;5051784;28;20086;-71
2023/07/18 02:11:39;;;;;;;22.17;14.30;;;;;;;21.43;100.00;97493.75;5051276;28;20021;-72
2023/07/18 02:14:05;;;;;;;20.73;14.90;;;;;;;21.31;100.00;97500.50;5051384;28;20036;-72
2023/07/18 02:16:31;;;;;;;21.80;14.93;;;;;;;21.39;100.00;97499.69;5035015;28;20114;-72
2023/07/18 02:19:00;;;;;;;25.73;15.18;;;;;;;21.44;100.00;97498.16;5051384;28;20028;-72
2023/07/18 02:21:25;;;;;;;25.90;16.27;;;;;;;21.50;100.00;97510.28;5051530;28;20098;-72
2023/07/18 02:23:51;;;;;;;21.70;14.60;;;;;;;21.47;100.00;97506.00;5052625;28;20029;-72
2023/07/18 02:26:16;;;;;;;23.05;14.82;;;;;;;21.50;100.00;97507.56;5034531;28;20091;-72
2023/07/18 02:28:42;;;;;;;24.27;15.40;;;;;;;21.57;100.00;97511.31;5050863;28;20028;-72
2023/07/18 02:31:07;;;;;;;22.85;14.63;;;;;;;21.52;100.00;97498.22;5051035;28;20477;-72
2023/07/18 02:33:33;;;;;;;23.15;14.35;;;;;;;21.49;100.00;97503.13;5051491;28;20112;-74
2023/07/18 02:35:58;;;;;;;21.33;15.55;;;;;;;21.42;100.00;97504.78;5051389;28;20048;-73
2023/07/18 02:38:24;;;;;;;28.48;14.80;;;;;;;21.40;100.00;97510.41;5052291;28;20492;-73
2023/07/18 02:40:50;;;;;;;23.23;14.90;;;;;;;21.39;100.00;97513.28;5051207;28;20033;-73
2023/07/18 02:43:15;;;;;;;20.02;14.00;;;;;;;21.42;100.00;97512.97;5050428;28;20021;-74
2023/07/18 02:45:41;;;;;;;22.55;14.60;;;;;;;21.38;100.00;97511.59;5051539;28;20465;-73
2023/07/18 02:48:06;;;;;;;28.02;14.93;;;;;;;21.36;100.00;97510.88;5052046;28;20029;-73
2023/07/18 02:50:32;;;;;;;24.00;14.90;;;;;;;21.35;100.00;97501.88;5050884;28;20064;-73
2023/07/18 02:52:58;;;;;;;24.20;16.17;;;;;;;21.34;100.00;97513.78;5051828;28;20036;-74
2023/07/18 02:55:24;;;;;;;26.42;15.30;;;;;;;21.30;100.00;97509.69;5051848;28;20025;-73
2023/07/18 02:57:50;;;;;;;25.48;15.10;;;;;;;21.27;100.00;97504.56;5050985;28;20090;-73
2023/07/18 03:00:19;;;;;;;23.08;15.35;;;;;;;21.28;100.00;97509.00;5050505;28;20119;-73
2023/07/18 03:02:48;;;;;;;23.80;15.60;;;;;;;21.25;100.00;97511.19;5034311;28;20033;-73
2023/07/18 03:05:17;;;;;;;21.13;15.02;;;;;;;21.20;100.00;97517.09;5049496;28;20028;-73
2023/07/18 03:07:44;;;;;;;22.48;15.52;;;;;;;21.26;100.00;97524.63;5033973;28;20029;-74
2023/07/18 03:10:10;;;;;;;28.05;16.20;;;;;;;21.29;100.00;97524.28;5050469;28;20021;-73
2023/07/18 03:12:35;;;;;;;26.02;16.63;;;;;;;21.37;100.00;97524.34;5050385;28;20688;-72
2023/07/18 03:15:01;;;;;;;24.60;16.77;;;;;;;21.48;100.00;97531.34;5033714;28;20107;-72
2023/07/18 03:17:27;;;;;;;22.70;15.50;;;;;;;21.46;100.00;97525.22;5051462;28;20048;-72
2023/07/18 03:19:53;;;;;;;21.02;15.85;;;;;;;21.43;100.00;97531.00;5033652;28;20029;-75
2023/07/18 03:22:19;;;;;;;19.73;14.57;;;;;;;21.37;100.00;97526.22;5032973;28;20392;-73
2023/07/18 03:24:47;;;;;;;27.55;16.80;;;;;;;21.33;100.00;97530.25;5051738;28;20025;-73
2023/07/18 03:27:13;;;;;;;26.52;17.08;;;;;;;21.39;100.00;97540.50;5033914;28;20086;-73
2023/07/18 03:29:38;;;;;;;28.65;16.73;;;;;;;21.46;100.00;97539.69;5049889;28;20033;-73
2023/07/18 03:32:04;;;;;;;38.03;19.98;;;;;;;21.50;100.00;97538.34;5049918;28;20112;-73
2023/07/18 03:34:30;;;;;;;39.80;18.95;;;;;;;21.53;100.00;97542.63;5049645;28;20029;-73
2023/07/18 03:36:55;;;;;;;37.75;17.25;;;;;;;21.62;100.00;97547.09;5033547;28;20053;-73
2023/07/18 03:39:21;;;;;;;30.77;17.10;;;;;;;21.64;100.00;97547.78;5050024;28;20024;-73
2023/07/18 03:41:46;;;;;;;30.55;16.90;;;;;;;21.58;100.00;97551.16;5045633;28;20123;-73
2023/07/18 03:44:12;;;;;;;23.92;15.15;;;;;;;21.63;100.00;97548.78;5049821;28;20115;-73
2023/07/18 03:46:37;;;;;;;22.13;15.32;;;;;;;21.78;100.00;97554.47;5049702;28;20029;-73
2023/07/18 03:49:04;;;;;;;28.30;15.23;;;;;;;21.89;100.00;97549.59;5049726;28;20059;-73
2023/07/18 03:51:29;;;;;;;27.92;15.40;;;;;;;21.95;100.00;97548.94;5032977;28;20032;-73
2023/07/18 03:53:55;;;;;;;34.67;17.35;;;;;;;22.05;100.00;97543.34;5051113;28;20029;-73
2023/07/18 03:56:21;;;;;;;32.97;15.48;;;;;;;22.11;100.00;97551.72;5032926;28;20028;-73
2023/07/18 03:58:46;;;;;;;31.73;15.07;;;;;;;22.17;100.00;97552.06;5050750;28;20033;-74
2023/07/18 04:01:12;;;;;;;31.85;15.85;;;;;;;22.32;100.00;97561.28;5032903;28;20492;-74
2023/07/18 04:03:38;;;;;;;26.27;14.98;;;;;;;22.48;100.00;97551.28;5032747;28;20403;-74
2023/07/18 04:06:04;;;;;;;24.08;16.05;;;;;;;22.66;100.00;97560.19;5049556;28;20030;-73
2023/07/18 04:08:30;;;;;;;27.08;15.55;;;;;;;22.81;100.00;97554.88;5032563;28;20035;-74
2023/07/18 04:10:57;;;;;;;29.38;15.20;;;;;;;22.91;100.00;97552.84;5062828;28;20033;-74
2023/07/18 04:13:23;;;;;;;26.27;14.35;;;;;;;22.96;100.00;97553.16;5069323;28;20036;-73
2023/07/18 04:15:48;;;;;;;27.23;14.23;;;;;;;23.09;100.00;97544.47;5069014;28;20101;-74
2023/07/18 04:18:14;;;;;;;30.42;14.95;;;;;;;23.30;100.00;97536.56;5052411;28;20028;-73
2023/07/18 04:20:39;;;;;;;20.63;14.75;;;;;;;23.33;100.00;97543.53;5070521;28;20028;-74
2023/07/18 04:23:05;;;;;;;20.52;13.93;;;;;;;23.33;100.00;97547.13;5070652;28;20039;-73
2023/07/18 04:25:34;;;;;;;23.73;14.13;;;;;;;23.23;100.00;97543.72;5070376;28;20024;-72
2023/07/18 04:28:01;;;;;;;24.30;14.75;;;;;;;23.36;100.00;97545.94;5070414;28;20396;-73
2023/07/18 04:30:26;;;;;;;28.42;14.45;;;;;;;23.42;100.00;97542.53;5070455;28;20048;-73
2023/07/18 04:32:52;;;;;;;24.23;14.68;;;;;;;23.47;100.00;97551.88;5068948;28;20031;-73
2023/07/18 04:35:17;;;;;;;31.50;15.23;;;;;;;23.49;100.00;97541.66;5070220;28;20020;-73
2023/07/18 04:37:43;;;;;;;20.65;13.90;;;;;;;23.51;100.00;97539.59;5068924;28;20147;-72
2023/07/18 04:40:10;;;;;;;25.48;14.85;;;;;;;23.49;100.00;97544.41;5069116;28;20024;-73
2023/07/18 04:42:37;;;;;;;24.75;14.45;;;;;;;23.60;100.00;97543.16;5060603;28;20496;-74
2023/07/18 04:45:06;;;;;;;22.98;13.27;;;;;;;23.74;100.00;97542.44;5049059;28;20017;-72
2023/07/18 04:47:31;;;;;;;23.88;14.15;;;;;;;23.74;100.00;97546.00;5048952;28;20065;-72
2023/07/18 04:49:57;;;;;;;21.95;14.70;;;;;;;23.84;100.00;97539.47;5048863;28;20516;-72
2023/07/18 04:52:23;;;;;;;26.27;15.60;;;;;;;23.92;100.00;97536.69;5045559;28;20032;-72
2023/07/18 04:54:49;;;;;;;22.80;13.88;;;;;;;24.04;100.00;97535.28;5046237;28;20067;-72
2023/07/18 04:57:14;;;;;;;25.50;14.77;;;;;;;24.07;100.00;97519.38;5057945;28;20502;-72
2023/07/18 04:59:41;;;;;;;22.58;14.18;;;;;;;24.25;100.00;97533.63;5066147;28;20067;-73
2023/07/18 05:02:07;;;;;;;26.25;13.00;;;;;;;24.40;100.00;97533.69;5062556;28;20029;-84
2023/07/18 05:04:32;;;;;;;23.27;14.20;;;;;;;24.75;100.00;97537.72;5042222;28;20451;-81
2023/07/18 05:06:58;;;;;;;25.00;14.35;;;;;;;25.37;100.00;97523.81;5038523;28;20408;-82
2023/07/18 05:09:25;;;;;;;26.13;15.52;;;;;;;26.20;100.00;97521.59;5053434;28;20511;-82
2023/07/18 05:11:50;;;;;;;25.00;15.30;;;;;;;26.55;100.00;97519.88;5041078;28;20032;-82
2023/07/18 05:14:16;;;;;;;22.25;14.30;;;;;;;26.77;100.00;97527.03;5033382;28;20032;-71
2023/07/18 05:16:42;;;;;;;31.35;14.55;;;;;;;26.82;100.00;97524.59;5045663;28;20345;-74
2023/07/18 05:19:07;;;;;;;23.42;13.57;;;;;;;26.86;100.00;97534.13;5047057;28;20396;-74
2023/07/18 05:21:33;;;;;;;23.95;13.43;;;;;;;26.98;100.00;97531.72;5029591;28;20130;-73
2023/07/18 05:23:58;;;;;;;26.17;13.85;;;;;;;27.22;100.00;97532.13;5045977;28;20464;-74
2023/07/18 05:26:24;;;;;;;26.00;13.25;;;;;;;27.76;100.00;97523.19;5029445;28;20045;-73
2023/07/18 05:28:51;;;;;;;19.65;12.98;;;;;;;28.65;100.00;97533.09;5032796;28;20504;-74
2023/07/18 05:31:16;;;;;;;24.02;13.48;;;;;;;29.54;100.00;97531.66;5050426;28;20060;-73
2023/07/18 05:33:42;;;;;;;26.52;18.58;;;;;;;30.26;100.00;97527.88;5049569;28;20450;-74
2023/07/18 05:36:07;;;;;;;26.95;13.18;;;;;;;30.72;100.00;97524.88;5049447;28;20077;-74
2023/07/18 05:38:33;;;;;;;21.58;11.80;;;;;;;31.21;100.00;97532.41;5049148;28;20112;-74
2023/07/18 05:40:58;;;;;;;27.88;13.05;;;;;;;31.53;100.00;97533.22;5049356;28;20029;-74
2023/07/18 05:43:24;;;;;;;27.25;14.10;;;;;;;32.14;97.49;97527.66;5050458;28;20504;-74
2023/07/18 05:45:49;;;;;;;18.98;12.13;;;;;;;32.27;94.12;97521.13;5050466;28;20032;-74
2023/07/18 05:48:15;;;;;;;32.40;13.27;;;;;;;32.42;92.38;97527.97;5049003;28;20024;-74
2023/07/18 05:50:40;;;;;;;28.67;12.80;;;;;;;31.85;95.10;97523.72;5049110;28;20044;-74
2023/07/18 05:53:06;;;;;;;22.23;12.57;;;;;;;31.35;100.00;97533.97;5050187;28;20029;-74
2023/07/18 05:55:32;;;;;;;31.52;12.55;;;;;;;30.42;100.00;97535.69;5051284;28;20033;-75
2023/07/18 05:57:57;;;;;;;28.85;12.63;;;;;;;30.26;100.00;97538.06;5069061;28;20032;-74
2023/07/18 06:00:23;;;;;;;31.35;12.85;;;;;;;30.72;100.00;97530.41;5068368;28;20408;-75
2023/07/18 06:02:48;;;;;;;22.45;12.73;;;;;;;31.60;100.00;97531.22;5068821;28;20090;-74
2023/07/18 06:05:17;;;;;;;21.23;13.55;;;;;;;31.77;97.39;97525.94;5052160;28;20613;-74
2023/07/18 06:07:42;;;;;;;27.73;14.45;;;;;;;32.08;97.21;97532.22;5068535;28;20028;-75
2023/07/18 06:10:08;;;;;;;34.35;14.07;;;;;;;32.44;95.24;97531.31;5052146;28;20655;-75
2023/07/18 06:12:35;;;;;;;31.60;13.43;;;;;;;33.27;91.60;97523.09;5069922;28;20028;-75
2023/07/18 06:15:01;;;;;;;26.33;14.25;;;;;;;34.01;84.33;97524.31;5069776;28;20033;-75
2023/07/18 06:17:26;;;;;;;24.80;13.13;;;;;;;34.27;80.91;97523.81;5069949;28;20086;-75
2023/07/18 06:19:52;;;;;;;28.92;14.18;;;;;;;34.88;75.03;97516.69;5052001;28;20182;-74
2023/07/18 06:22:18;;;;;;;29.67;13.63;;;;;;;34.95;72.83;97528.53;5068572;28;20043;-75
2023/07/18 06:24:44;;;;;;;23.02;12.88;;;;;;;35.02;70.50;97520.84;5069647;28;20094;-74
2023/07/18 06:27:10;;;;;;;26.85;12.98;;;;;;;35.09;69.30;97521.56;5051771;28;20514;-74
2023/07/18 06:29:35;;;;;;;34.60;14.32;;;;;;;35.05;67.83;97521.19;5069209;28;20028;-74
2023/07/18 06:32:04;;;;;;;28.35;11.52;;;;;;;35.35;64.32;97510.59;5051550;28;20060;-74
2023/07/18 06:34:30;;;;;;;19.08;11.68;;;;;;;35.75;61.26;97502.06;5069257;28;20487;-74
2023/07/18 06:36:59;;;;;;;15.25;12.82;;;;;;;36.27;62.73;97522.06;5068537;28;20048;-73
2023/07/18 06:39:26;;;;;;;22.50;11.70;;;;;;;37.09;55.60;97513.56;5068224;28;20029;-73
2023/07/18 06:41:51;;;;;;;18.00;13.00;;;;;;;37.30;54.02;97509.84;5051489;28;20098;-73
2023/07/18 06:44:18;;;;;;;16.55;11.70;;;;;;;37.67;51.81;97507.09;5068226;28;20017;-73
2023/07/18 06:46:45;;;;;;;23.48;12.30;;;;;;;37.30;52.36;97507.06;5068031;28;20111;-73
2023/07/18 06:49:11;;;;;;;13.32;10.82;;;;;;;37.86;51.60;97502.75;5068140;28;20063;-73
2023/07/18 06:51:37;;;;;;;20.50;12.40;;;;;;;37.58;51.76;97502.28;5067819;28;20579;-74
2023/07/18 06:54:02;;;;;;;23.67;12.75;;;;;;;38.03;49.47;97498.97;5069438;28;20450;-74
2023/07/18 06:56:28;;;;;;;18.80;12.50;;;;;;;38.10;49.49;97493.97;5069252;28;20312;-74
2023/07/18 06:58:54;;;;;;;36.92;12.55;;;;;;;38.69;47.81;97492.56;5067807;28;22752;-73
2023/07/18 07:01:19;;;;;;;21.33;11.32;;;;;;;38.93;45.89;97499.38;5068242;28;20020;-73
2023/07/18 07:03:45;;;;;;;17.30;11.77;;;;;;;38.71;46.06;97487.53;5067614;28;20039;-73
2023/07/18 07:06:13;;;;;;;20.67;12.15;;;;;;;39.15;46.00;97498.28;5069512;28;20032;-73
2023/07/18 07:08:39;;;;;;;16.25;10.80;;;;;;;39.48;44.52;97492.16;5068899;28;20086;-74
2023/07/18 07:11:06;;;;;;;14.15;10.30;;;;;;;39.92;44.01;97501.66;5050905;28;20444;-74
2023/07/18 07:13:33;;;;;;;14.45;10.70;;;;;;;40.27;43.31;97497.09;5067610;28;20314;-73
2023/07/18 07:16:00;;;;;;;17.95;11.30;;;;;;;39.62;44.91;97504.47;5067346;28;20482;-74
2023/07/18 07:18:26;;;;;;;15.13;11.65;;;;;;;40.05;43.60;97503.03;5068788;28;20559;-74
2023/07/18 07:20:53;;;;;;;19.80;11.05;;;;;;;39.77;44.66;97498.88;5050789;28;20067;-74
2023/07/18 07:23:18;;;;;;;26.02;11.40;;;;;;;40.51;43.25;97495.31;5067610;28;20103;-74
2023/07/18 07:25:44;;;;;;;14.27;10.90;;;;;;;40.46;43.02;97495.31;5050844;28;20071;-75
2023/07/18 07:28:10;;;;;;;16.23;10.57;;;;;;;40.07;43.35;97496.00;5067402;28;20028;-74
2023/07/18 07:30:35;;;;;;;23.25;11.15;;;;;;;40.05;43.09;97494.63;5068468;28;20036;-74
2023/07/18 07:33:01;;;;;;;12.90;10.77;;;;;;;40.56;42.25;97490.53;5068343;28;20115;-73
2023/07/18 07:35:26;;;;;;;17.13;11.05;;;;;;;41.05;41.70;97487.75;5066449;28;20537;-74
2023/07/18 07:37:52;;;;;;;15.10;11.68;;;;;;;41.86;39.97;97487.09;5067308;28;20050;-74
2023/07/18 07:40:19;;;;;;;15.23;11.73;;;;;;;41.80;39.67;97482.66;5050169;28;20087;-74
2023/07/18 07:42:45;;;;;;;17.13;11.55;;;;;;;41.64;40.82;97497.97;5068329;28;20060;-74
2023/07/18 07:45:12;;;;;;;17.67;10.90;;;;;;;41.67;41.13;97477.69;5067005;28;20074;-75
2023/07/18 07:47:38;;;;;;;16.48;10.88;;;;;;;42.59;39.02;97478.38;5067256;28;20123;-74
2023/07/18 07:50:05;;;;;;;15.15;10.68;;;;;;;42.22;38.92;97467.03;5067775;28;20032;-75
2023/07/18 07:52:31;;;;;;;16.50;10.90;;;;;;;42.31;39.14;97470.84;5062826;28;20041;-75
2023/07/18 07:54:57;;;;;;;15.00;10.80;;;;;;;41.89;39.29;97478.06;5030003;28;20500;-75
2023/07/18 07:57:22;;;;;;;19.20;10.32;;;;;;;40.75;41.19;97478.66;5046834;28;20037;-75
2023/07/18 07:59:48;;;;;;;15.10;11.23;;;;;;;40.40;42.14;97474.00;5061662;28;20068;-75
2023/07/18 08:02:14;;;;;;;16.40;11.80;;;;;;;39.52;43.14;97473.66;5067958;28;20036;-75
2023/07/18 08:04:41;;;;;;;17.90;11.88;;;;;;;38.96;44.63;97486.78;5066905;28;20393;-75
2023/07/18 08:07:10;;;;;;;16.55;10.80;;;;;;;39.02;44.85;97475.31;5050046;28;20036;-75
2023/07/18 08:09:39;;;;;;;16.42;11.30;;;;;;;38.81;45.26;97479.19;5068079;28;20032;-75
2023/07/18 08:12:05;;;;;;;14.27;12.35;;;;;;;38.80;46.51;97488.69;5050597;28;20547;-74
2023/07/18 08:14:37;;;;;;;23.55;11.27;;;;;;;39.02;47.68;97502.44;5066587;28;20109;-75
2023/07/18 08:17:03;;;;;;;15.43;12.43;;;;;;;38.77;48.32;97496.75;5050068;28;20115;-75
2023/07/18 08:19:29;;;;;;;19.77;12.13;;;;;;;38.26;49.79;97501.31;5066594;28;20483;-75
2023/07/18 08:21:56;;;;;;;21.45;12.30;;;;;;;37.65;52.76;97506.53;5060260;28;20037;-74
2023/07/18 08:24:22;;;;;;;22.40;12.40;;;;;;;38.42;50.35;97505.91;5029950;28;20037;-75
2023/07/18 08:26:47;;;;;;;26.88;11.93;;;;;;;38.07;50.12;97502.91;5047790;28;20041;-75
2023/07/18 08:29:13;;;;;;;20.63;11.77;;;;;;;38.26;51.16;97506.91;5029983;28;20032;-75
2023/07/18 08:31:38;;;;;;;19.20;12.18;;;;;;;38.98;47.71;97507.75;5046312;28;20080;-75
2023/07/18 08:34:04;;;;;;;28.63;13.55;;;;;;;38.60;51.42;97519.41;5047711;28;20029;-73
2023/07/18 08:36:31;;;;;;;19.80;12.25;;;;;;;39.77;46.51;97510.09;5046370;28;20036;-75
2023/07/18 08:38:56;;;;;;;20.58;13.25;;;;;;;40.90;43.16;97504.66;5046480;28;20043;-75
2023/07/18 08:41:25;;;;;;;17.70;11.52;;;;;;;42.01;40.78;97505.78;5048855;28;20029;-75
2023/07/18 08:43:51;;;;;;;17.58;11.77;;;;;;;42.31;39.21;97496.16;5066625;28;20029;-75
2023/07/18 08:46:17;;;;;;;20.90;11.23;;;;;;;43.02;38.92;97493.28;5066360;28;20090;-76
2023/07/18 08:48:46;;;;;;;17.63;11.18;;;;;;;43.19;38.72;97494.41;5066651;28;20033;-75
2023/07/18 08:51:12;;;;;;;15.10;11.20;;;;;;;44.20;36.90;97497.50;5043796;28;20029;-75
2023/07/18 08:53:41;;;;;;;13.95;10.85;;;;;;;45.11;35.34;97493.56;5047750;28;20116;-73
2023/07/18 08:56:08;;;;;;;13.80;10.95;;;;;;;44.71;35.77;97480.34;5049563;28;20043;-74
2023/07/18 08:58:36;;;;;;;14.38;10.85;;;;;;;44.93;36.16;97482.44;5053024;28;20036;-73
2023/07/18 09:01:02;;;;;;;15.75;10.70;;;;;;;45.43;34.24;97484.06;5050391;28;20472;-74
2023/07/18 09:03:27;;;;;;;18.17;10.60;;;;;;;46.29;34.00;97484.63;5052377;28;20032;-74
2023/07/18 09:05:53;;;;;;;18.63;10.02;;;;;;;45.73;34.23;97494.63;5054112;28;20398;-74
2023/07/18 09:08:18;;;;;;;12.77;9.57;;;;;;;43.35;37.22;97480.91;5054045;28;20028;-74
2023/07/18 09:10:45;;;;;;;30.38;10.05;;;;;;;43.68;36.95;97484.63;5054356;28;20372;-73
2023/07/18 09:13:11;;;;;;;17.05;10.30;;;;;;;42.01;39.09;97481.31;5037008;28;20504;-73
2023/07/18 09:15:37;;;;;;;15.20;10.15;;;;;;;42.46;40.27;97491.19;5052378;28;20061;-74
2023/07/18 09:18:05;;;;;;;20.23;10.88;;;;;;;41.84;41.32;97480.91;5054350;28;20021;-74
2023/07/18 09:20:32;;;;;;;20.08;9.38;;;;;;;40.51;44.61;97492.50;5052921;28;20033;-74
2023/07/18 09:23:00;;;;;;;18.08;8.98;;;;;;;41.81;42.54;97495.56;5036098;28;20028;-75
2023/07/18 09:25:26;;;;;;;14.00;9.48;;;;;;;43.70;38.91;97488.78;5052410;28;20021;-74
2023/07/18 09:27:57;;;;;;;15.60;10.55;;;;;;;44.48;37.41;97489.88;5035755;28;20032;-74
2023/07/18 09:30:35;;;;;;;24.65;10.95;;;;;;;44.65;36.43;97482.47;5052423;28;20041;-75
2023/07/18 09:33:04;;;;;;;21.73;13.27;;;;;;;42.66;39.39;97474.06;5043525;28;20034;-74
2023/07/18 09:35:30;;;;;;;22.52;10.45;;;;;;;43.17;39.18;97479.81;5049216;28;20095;-74
2023/07/18 09:37:56;;;;;;;15.13;9.50;;;;;;;44.31;37.26;97486.81;5051036;28;20025;-76
2023/07/18 09:40:22;;;;;;;12.35;8.27;;;;;;;45.10;36.37;97474.13;5032737;28;20029;-75
2023/07/18 09:42:49;;;;;;;16.33;8.30;;;;;;;45.08;35.73;97474.44;5049354;28;20099;-76
2023/07/18 09:45:16;;;;;;;13.13;7.68;;;;;;;44.22;36.01;97479.09;5049521;28;20395;-75
2023/07/18 09:47:42;;;;;;;10.73;7.45;;;;;;;44.28;35.23;97457.25;5051994;28;20036;-73
2023/07/18 09:50:12;;;;;;;15.23;7.03;;;;;;;45.05;34.34;97475.06;5069524;28;20107;-73
2023/07/18 09:52:46;;;;;;;15.07;7.20;;;;;;;44.16;35.73;97468.22;5069314;28;20119;-74
2023/07/18 09:55:13;;;;;;;15.45;7.30;;;;;;;44.09;36.57;97462.13;5068919;28;20059;-74
2023/07/18 09:57:43;;;;;;;23.48;8.05;;;;;;;45.34;34.75;97465.38;5069469;28;20096;-73
2023/07/18 10:00:15;;;;;;;14.98;6.97;;;;;;;45.78;34.00;97465.34;5070400;28;20028;-74
2023/07/18 10:02:42;;;;;;;15.07;7.05;;;;;;;45.99;33.63;97458.00;5070242;28;20035;-74
2023/07/18 10:05:10;;;;;;;16.45;6.68;;;;;;;46.79;32.36;97454.00;5052242;28;20078;-74
2023/07/18 10:07:38;;;;;;;14.73;7.65;;;;;;;46.63;31.90;97464.09;5068953;28;20048;-77
2023/07/18 10:10:10;;;;;;;14.13;8.20;;;;;;;46.03;32.86;97447.66;5069102;28;20103;-78
2023/07/18 10:12:59;;;;;;;16.83;7.25;;;;;;;46.12;32.32;97450.56;5040437;28;20048;-80
2023/07/18 10:15:28;;;;;;;17.85;7.50;;;;;;;46.93;31.80;97451.84;5057104;28;20033;-80
2023/07/18 10:17:54;;;;;;;12.00;7.00;;;;;;;46.26;31.78;97448.47;5059342;28;20472;-79
2023/07/18 10:20:33;;;;;;;14.32;7.65;;;;;;;46.19;32.17;97448.94;5061790;28;20055;-79
2023/07/18 10:23:00;;;;;;;17.38;7.43;;;;;;;46.18;31.57;97455.75;5048469;28;20064;-74
2023/07/18 10:25:29;;;;;;;35.30;7.75;;;;;;;45.52;32.17;97456.69;5048887;28;20044;-73
2023/07/18 10:27:56;;;;;;;16.38;7.22;;;;;;;46.04;31.57;97455.00;5048611;28;20553;-74
2023/07/18 10:30:22;;;;;;;19.35;7.35;;;;;;;46.85;30.60;97444.16;5031964;28;20044;-73
2023/07/18 10:32:55;;;;;;;16.52;7.43;;;;;;;46.70;31.03;97441.78;5048381;28;20039;-74
2023/07/18 10:35:23;;;;;;;14.38;7.05;;;;;;;46.38;31.13;97440.16;5048366;28;20060;-74
2023/07/18 10:37:54;;;;;;;12.02;6.75;;;;;;;45.49;32.20;97451.69;5048612;28;20025;-73
2023/07/18 10:40:43;;;;;;;25.63;7.32;;;;;;;46.37;30.92;97446.16;5031908;28;20108;-74
2023/07/18 10:43:20;;;;;;;11.23;6.35;;;;;;;46.64;30.40;97440.28;5049792;28;20036;-75
2023/07/18 10:45:45;;;;;;;12.93;6.65;;;;;;;46.76;30.51;97446.13;5048195;28;20187;-74
2023/07/18 10:48:15;;;;;;;17.83;7.13;;;;;;;47.10;30.17;97451.00;5048175;28;20626;-74
2023/07/18 10:50:43;;;;;;;14.15;6.85;;;;;;;47.65;28.80;97439.84;5048149;28;20609;-74
2023/07/18 10:53:18;;;;;;;21.90;6.75;;;;;;;47.04;29.30;97444.66;5048317;28;20040;-74
2023/07/18 10:55:46;;;;;;;13.38;6.60;;;;;;;47.19;29.28;97444.22;5048046;28;20033;-73
2023/07/18 10:58:19;;;;;;;15.25;6.57;;;;;;;46.69;30.15;97448.59;5031505;28;20067;-74
2023/07/18 11:00:46;;;;;;;13.63;6.93;;;;;;;46.56;30.34;97443.91;5048196;28;20033;-74
2023/07/18 11:03:22;;;;;;;23.15;7.07;;;;;;;46.18;30.70;97447.25;5047865;28;20472;-74
2023/07/18 11:05:49;;;;;;;15.40;7.75;;;;;;;46.56;29.59;97450.41;5049339;28;20116;-74
2023/07/18 11:08:28;;;;;;;15.30;6.55;;;;;;;46.12;29.52;97442.91;5047696;28;20032;-75
2023/07/18 11:10:55;;;;;;;12.02;6.30;;;;;;;46.73;29.26;97450.44;5047710;28;20524;-74
2023/07/18 11:13:29;;;;;;;22.38;7.13;;;;;;;46.98;29.58;97445.97;5048996;28;20029;-74